Womack, Texas
Current Conditions -  °F | °C
As of 7:51 AM on Monday 26 Jan 2015 (Local Time) from KACT Reporting Station
Clear Clear  
Wind Chill: 28°   Ceiling: Unl
Heat Index: 33°   Visibility: 10mi
Dew Point: 30°   Wind: 6mph
Humidity: 89%   Direction: 240°WSW
Pressure: 30.25"   Gusts: NA
Location:  31.7854°N, 97.5786°W
Report Text: KACT 261351Z 24005KT 10SM CLR 01/M01 A3025 RMK AO2 SLP244 T00061011
Loading
Personal Weather Stations






























Interactive Weather Map New forecast layout! Learn more

10-Day Weather Forecast

Advertisements
Track Severe Weather on mobile